createdAt,value
2023-02-23T00:01:52.321Z,95211.56
2023-02-23T00:04:21.315Z,95218.09
2023-02-23T00:06:48.953Z,95213.19
2023-02-23T00:09:23.403Z,95211.00
2023-02-23T00:11:51.309Z,95217.22
2023-02-23T00:14:20.236Z,95218.41
2023-02-23T00:16:47.823Z,95221.56
2023-02-23T00:19:16.484Z,95220.88
2023-02-23T00:21:46.681Z,95215.28
2023-02-23T00:24:16.906Z,95216.00
2023-02-23T00:26:45.283Z,95215.88
2023-02-23T00:29:17.372Z,95220.31
2023-02-23T00:31:45.779Z,95221.94
2023-02-23T00:34:16.196Z,95216.53
2023-02-23T00:36:45.148Z,95219.75
2023-02-23T00:39:19.150Z,95220.03
2023-02-23T00:41:47.345Z,95218.75
2023-02-23T00:44:16.280Z,95221.03
2023-02-23T00:46:45.223Z,95221.66
2023-02-23T00:49:14.285Z,95220.69
2023-02-23T00:51:42.607Z,95222.75
2023-02-23T00:54:13.443Z,95217.88
2023-02-23T00:56:41.340Z,95216.06
2023-02-23T00:59:09.779Z,95212.25
2023-02-23T01:01:38.558Z,95213.53
2023-02-23T01:04:07.530Z,95211.72
2023-02-23T01:06:37.604Z,95213.28
2023-02-23T01:09:10.025Z,95222.22
2023-02-23T01:11:41.356Z,95215.22
2023-02-23T01:14:11.676Z,95221.78
2023-02-23T01:16:39.789Z,95212.78
2023-02-23T01:19:08.981Z,95220.41
2023-02-23T01:21:39.120Z,95212.59
2023-02-23T01:24:08.026Z,95215.41
2023-02-23T01:26:38.003Z,95206.47
2023-02-23T01:29:10.185Z,95205.97
2023-02-23T01:31:40.473Z,95215.63
2023-02-23T01:34:11.842Z,95215.78
2023-02-23T01:36:41.728Z,95204.09
2023-02-23T01:39:17.597Z,95197.22
2023-02-23T01:41:46.058Z,95203.47
2023-02-23T01:44:53.283Z,95199.22
2023-02-23T01:47:22.193Z,95196.84
2023-02-23T01:49:51.525Z,95192.09
2023-02-23T01:52:20.740Z,95193.16
2023-02-23T01:54:52.780Z,95186.38
2023-02-23T01:57:24.752Z,95191.47
2023-02-23T01:59:53.673Z,95189.28
2023-02-23T02:02:33.439Z,95189.56
2023-02-23T02:05:05.478Z,95189.94
2023-02-23T02:07:35.358Z,95189.03
2023-02-23T02:10:39.434Z,95188.78
2023-02-23T02:13:09.680Z,95185.91
2023-02-23T02:15:53.997Z,95187.72
2023-02-23T02:18:38.079Z,95186.38
2023-02-23T02:21:56.076Z,95178.63
2023-02-23T02:24:58.820Z,95177.34
2023-02-23T02:27:43.383Z,95177.28
2023-02-23T02:30:28.966Z,95175.38
2023-02-23T02:33:32.082Z,95168.13
2023-02-23T02:36:34.041Z,95169.03
2023-02-23T02:39:17.358Z,95167.59
2023-02-23T02:41:54.006Z,95167.69
2023-02-23T02:44:31.395Z,95164.69
2023-02-23T02:47:08.368Z,95164.69
2023-02-23T02:49:46.233Z,95163.31
2023-02-23T02:52:20.764Z,95165.31
2023-02-23T02:54:54.141Z,95163.69
2023-02-23T02:57:25.661Z,95164.94
2023-02-23T03:00:11.120Z,95169.03
2023-02-23T03:02:58.885Z,95172.72
2023-02-23T03:05:49.278Z,95165.50
2023-02-23T03:08:41.579Z,95161.38
2023-02-23T03:11:30.482Z,95162.19
2023-02-23T03:14:30.167Z,95169.09
2023-02-23T03:17:29.477Z,95169.38
2023-02-23T03:20:19.293Z,95160.28
2023-02-23T03:23:12.189Z,95165.19
2023-02-23T03:26:09.289Z,95174.16
2023-02-23T03:29:08.009Z,95169.78
2023-02-23T03:31:59.052Z,95165.34
2023-02-23T03:34:51.088Z,95168.16
2023-02-23T03:37:41.388Z,95169.78
2023-02-23T03:40:36.764Z,95178.69
2023-02-23T03:43:27.794Z,95182.03
2023-02-23T03:46:16.835Z,95177.41
2023-02-23T03:49:05.239Z,95187.34
2023-02-23T03:51:54.162Z,95175.25
2023-02-23T03:54:45.318Z,95185.44
2023-02-23T03:57:36.976Z,95182.72
2023-02-23T04:00:30.183Z,95188.97
2023-02-23T04:03:19.586Z,95189.78
2023-02-23T04:06:07.401Z,95185.25
2023-02-23T04:08:56.174Z,95184.56
2023-02-23T04:11:47.159Z,95187.28
2023-02-23T04:14:18.501Z,95185.09
2023-02-23T04:16:45.839Z,95185.34
2023-02-23T04:19:15.269Z,95183.97
2023-02-23T04:21:43.407Z,95184.59
2023-02-23T04:24:11.703Z,95190.84
2023-02-23T04:26:39.848Z,95182.34
2023-02-23T04:29:07.453Z,95184.16
2023-02-23T04:31:36.256Z,95177.66
2023-02-23T04:34:04.833Z,95180.81
2023-02-23T04:36:34.216Z,95180.75
2023-02-23T04:39:01.778Z,95182.31
2023-02-23T04:41:29.442Z,95177.59
2023-02-23T04:43:57.389Z,95178.78
2023-02-23T04:46:25.816Z,95175.16
2023-02-23T04:48:53.433Z,95186.25
2023-02-23T04:51:21.552Z,95181.34
2023-02-23T04:53:50.809Z,95189.22
2023-02-23T04:56:18.409Z,95188.06
2023-02-23T04:58:46.659Z,95187.41
2023-02-23T05:01:14.303Z,95183.91
2023-02-23T05:03:41.927Z,95186.88
2023-02-23T05:06:09.503Z,95190.13
2023-02-23T05:08:37.738Z,95180.09
2023-02-23T05:11:08.845Z,95182.34
2023-02-23T05:13:37.099Z,95178.88
2023-02-23T05:16:04.956Z,95183.41
2023-02-23T05:18:32.944Z,95177.16
2023-02-23T05:21:03.666Z,95174.16
2023-02-23T05:23:31.545Z,95178.25
2023-02-23T05:26:03.861Z,95181.13
2023-02-23T05:28:33.565Z,95183.38
2023-02-23T05:31:01.460Z,95183.66
2023-02-23T05:33:29.215Z,95177.56
2023-02-23T05:35:57.525Z,95181.41
2023-02-23T05:38:25.340Z,95180.03
2023-02-23T05:40:52.918Z,95180.97
2023-02-23T05:43:20.642Z,95182.41
2023-02-23T05:45:49.561Z,95182.41
2023-02-23T05:48:18.820Z,95183.25
2023-02-23T05:50:46.459Z,95186.06
2023-02-23T05:53:14.845Z,95183.91
2023-02-23T05:55:42.555Z,95178.47
2023-02-23T05:58:10.210Z,95182.72
2023-02-23T06:00:37.912Z,95187.81
2023-02-23T06:03:07.176Z,95186.00
2023-02-23T06:05:34.728Z,95192.91
2023-02-23T06:10:48.355Z,95194.00
2023-02-23T06:13:17.152Z,95195.44
2023-02-23T06:15:45.708Z,95198.50
2023-02-23T06:18:15.173Z,95195.25
2023-02-23T06:20:42.776Z,95193.72
2023-02-23T06:23:11.127Z,95202.22
2023-02-23T06:25:38.852Z,95199.50
2023-02-23T06:28:07.572Z,95202.19
2023-02-23T06:30:35.378Z,95208.09
2023-02-23T06:33:03.156Z,95206.09
2023-02-23T06:35:33.855Z,95214.63
2023-02-23T06:38:02.163Z,95217.06
2023-02-23T06:40:30.835Z,95219.78
2023-02-23T06:43:00.208Z,95221.69
2023-02-23T06:45:27.966Z,95216.84
2023-02-23T06:47:55.572Z,95223.84
2023-02-23T06:50:23.444Z,95221.38
2023-02-23T06:52:52.492Z,95228.72
2023-02-23T06:55:20.661Z,95224.06
2023-02-23T06:57:50.227Z,95230.44
2023-02-23T07:00:19.075Z,95235.38
2023-02-23T07:02:47.405Z,95231.75
2023-02-23T07:05:15.295Z,95237.84
2023-02-23T07:07:43.427Z,95242.91
2023-02-23T07:10:13.595Z,95244.38
2023-02-23T07:12:41.188Z,95245.28
2023-02-23T07:15:10.364Z,95239.16
2023-02-23T07:17:38.118Z,95244.06
2023-02-23T07:20:07.294Z,95251.78
2023-02-23T07:22:34.918Z,95243.69
2023-02-23T07:25:02.843Z,95248.94
2023-02-23T07:27:31.778Z,95246.19
2023-02-23T07:29:59.390Z,95245.19
2023-02-23T07:32:27.666Z,95245.81
2023-02-23T07:34:55.651Z,95247.31
2023-02-23T07:37:23.749Z,95248.72
2023-02-23T07:39:51.833Z,95237.56
2023-02-23T07:42:19.775Z,95241.94
2023-02-23T07:44:49.502Z,95239.16
2023-02-23T07:47:17.536Z,95238.16
2023-02-23T07:49:45.204Z,95252.53
2023-02-23T07:52:12.794Z,95245.72
2023-02-23T07:54:40.604Z,95246.56
2023-02-23T07:57:08.166Z,95259.88
2023-02-23T07:59:36.166Z,95251.31
2023-02-23T08:02:05.089Z,95258.13
2023-02-23T08:04:32.854Z,95253.34
2023-02-23T08:07:00.657Z,95256.88
2023-02-23T08:09:30.112Z,95254.97
2023-02-23T08:11:57.691Z,95252.81
2023-02-23T08:14:25.385Z,95258.59
2023-02-23T08:16:53.107Z,95251.97
2023-02-23T08:19:23.615Z,95262.50
2023-02-23T08:21:51.711Z,95258.25
2023-02-23T08:24:19.397Z,95262.84
2023-02-23T08:26:46.993Z,95269.59
2023-02-23T08:29:14.557Z,95263.75
2023-02-23T08:31:42.333Z,95264.63
2023-02-23T08:34:10.206Z,95257.00
2023-02-23T08:36:39.376Z,95257.00
2023-02-23T08:39:07.509Z,95260.88
2023-02-23T08:41:35.241Z,95257.31
2023-02-23T08:44:02.846Z,95255.31
2023-02-23T08:46:30.806Z,95254.28
2023-02-23T08:48:58.734Z,95257.59
2023-02-23T08:51:26.723Z,95260.09
2023-02-23T08:53:57.125Z,95258.03
2023-02-23T08:56:26.157Z,95255.69
2023-02-23T08:58:54.240Z,95261.97
2023-02-23T09:01:23.263Z,95262.63
2023-02-23T09:03:51.344Z,95257.97
2023-02-23T09:06:23.033Z,95257.81
2023-02-23T09:08:50.740Z,95256.84
2023-02-23T09:11:20.984Z,95259.84
2023-02-23T09:13:48.790Z,95257.06
2023-02-23T09:16:16.634Z,95257.56
2023-02-23T09:18:44.474Z,95261.97
2023-02-23T09:21:19.394Z,95269.44
2023-02-23T09:23:49.709Z,95264.78
2023-02-23T09:26:19.135Z,95270.72
2023-02-23T09:28:48.351Z,95266.03
2023-02-23T09:31:20.917Z,95261.72
2023-02-23T09:33:48.776Z,95272.06
2023-02-23T09:36:19.019Z,95276.13
2023-02-23T09:38:48.491Z,95269.44
2023-02-23T09:41:46.620Z,95270.84
2023-02-23T09:44:26.596Z,95276.94
2023-02-23T09:47:06.650Z,95285.59
2023-02-23T09:49:38.157Z,95273.34
2023-02-23T09:52:16.596Z,95281.31
2023-02-23T09:54:44.842Z,95288.41
2023-02-23T09:57:17.845Z,95282.22
2023-02-23T09:59:46.935Z,95289.66
2023-02-23T10:02:24.468Z,95290.50
2023-02-23T10:04:57.526Z,95289.63
2023-02-23T10:07:31.581Z,95287.59
2023-02-23T10:10:08.652Z,95287.13
2023-02-23T10:12:46.629Z,95292.00
2023-02-23T10:15:24.858Z,95284.78
2023-02-23T10:18:03.803Z,95290.50
2023-02-23T10:20:42.673Z,95285.78
2023-02-23T10:23:16.687Z,95287.28
2023-02-23T10:25:48.058Z,95279.34
2023-02-23T10:28:19.052Z,95280.63
2023-02-23T10:30:49.538Z,95283.34
2023-02-23T10:33:23.212Z,95280.16
2023-02-23T10:36:07.211Z,95277.09
2023-02-23T10:38:39.996Z,95274.44
2023-02-23T10:41:08.316Z,95266.16
2023-02-23T10:43:35.951Z,95273.09
2023-02-23T10:46:06.455Z,95276.28
2023-02-23T10:48:41.178Z,95266.13
2023-02-23T10:51:18.509Z,95269.00
2023-02-23T10:53:46.452Z,95264.84
2023-02-23T10:56:15.884Z,95272.31
2023-02-23T10:58:46.875Z,95274.19
2023-02-23T11:01:18.255Z,95270.13
2023-02-23T11:03:57.556Z,95272.00
2023-02-23T11:06:30.276Z,95273.22
2023-02-23T11:08:58.731Z,95270.16
2023-02-23T11:11:28.788Z,95272.41
2023-02-23T11:13:58.525Z,95272.81
2023-02-23T11:16:30.871Z,95262.22
2023-02-23T11:19:01.707Z,95260.97
2023-02-23T11:21:33.385Z,95253.34
2023-02-23T11:24:12.201Z,95252.25
2023-02-23T11:26:43.221Z,95254.09
2023-02-23T11:29:21.455Z,95248.16
2023-02-23T11:31:53.782Z,95240.66
2023-02-23T11:34:28.918Z,95236.09
2023-02-23T11:37:03.147Z,95230.16
2023-02-23T11:39:30.792Z,95231.06
2023-02-23T11:42:17.746Z,95220.44
2023-02-23T11:44:51.300Z,95223.44
2023-02-23T11:47:23.602Z,95219.44
2023-02-23T11:49:52.013Z,95217.97
2023-02-23T11:52:24.695Z,95214.50
2023-02-23T11:54:57.241Z,95212.34
2023-02-23T11:57:29.581Z,95210.09
2023-02-23T11:59:59.294Z,95205.47
2023-02-23T12:02:31.092Z,95197.97
2023-02-23T12:05:10.034Z,95201.53
2023-02-23T12:07:42.352Z,95192.03
2023-02-23T12:10:19.987Z,95187.19
2023-02-23T12:12:55.589Z,95183.91
2023-02-23T12:15:33.478Z,95181.84
2023-02-23T12:18:09.710Z,95185.72
2023-02-23T12:20:42.236Z,95180.31
2023-02-23T12:23:14.510Z,95191.22
2023-02-23T12:25:49.970Z,95182.75
2023-02-23T12:28:26.353Z,95186.06
2023-02-23T12:30:59.192Z,95174.72
2023-02-23T12:33:35.067Z,95182.63
2023-02-23T12:36:07.992Z,95180.72
2023-02-23T12:38:49.319Z,95178.63
2023-02-23T12:41:25.510Z,95176.50
2023-02-23T12:43:59.861Z,95180.66
2023-02-23T12:46:31.139Z,95173.31
2023-02-23T12:49:13.940Z,95167.63
2023-02-23T12:51:45.737Z,95162.75
2023-02-23T12:54:16.322Z,95156.47
2023-02-23T12:56:55.520Z,95157.91
2023-02-23T13:00:00.333Z,95152.59
2023-02-23T13:02:34.587Z,95153.25
2023-02-23T13:05:22.810Z,95154.03
2023-02-23T13:08:12.719Z,95140.91
2023-02-23T13:10:51.383Z,95141.56
2023-02-23T13:13:30.446Z,95148.06
2023-02-23T13:16:06.685Z,95149.00
2023-02-23T13:18:42.774Z,95150.78
2023-02-23T13:21:18.777Z,95145.44
2023-02-23T13:24:00.674Z,95141.06
2023-02-23T13:26:37.048Z,95152.41
2023-02-23T13:29:16.264Z,95145.84
2023-02-23T13:31:45.131Z,95149.50
2023-02-23T13:34:20.884Z,95144.63
2023-02-23T13:36:51.387Z,95142.38
2023-02-23T13:39:40.482Z,95142.94
2023-02-23T13:42:20.943Z,95141.16
2023-02-23T13:44:54.239Z,95138.22
2023-02-23T13:47:37.208Z,95141.72
2023-02-23T13:50:09.089Z,95132.84
2023-02-23T13:52:42.456Z,95149.31
2023-02-23T13:55:48.244Z,95143.00
2023-02-23T13:58:19.958Z,95143.69
2023-02-23T14:00:55.586Z,95147.78
2023-02-23T14:03:28.138Z,95140.38
2023-02-23T14:06:00.819Z,95143.41
2023-02-23T14:08:35.623Z,95146.22
2023-02-23T14:11:04.014Z,95147.59
2023-02-23T14:13:35.021Z,95147.81
2023-02-23T14:16:15.321Z,95149.91
2023-02-23T14:19:15.598Z,95141.88
2023-02-23T14:21:50.830Z,95147.81
2023-02-23T14:24:23.088Z,95140.41
2023-02-23T14:27:34.202Z,95134.47
2023-02-23T14:30:26.897Z,95141.88
2023-02-23T14:32:54.727Z,95136.41
2023-02-23T14:35:44.553Z,95144.53
2023-02-23T14:38:24.821Z,95139.94
2023-02-23T14:40:56.419Z,95138.56
2023-02-23T14:43:42.669Z,95135.09
2023-02-23T14:46:15.999Z,95138.56
2023-02-23T14:48:56.653Z,95132.66
2023-02-23T14:51:29.834Z,95141.28
2023-02-23T14:54:00.075Z,95137.59
2023-02-23T14:56:43.321Z,95134.00
2023-02-23T14:59:19.380Z,95132.59
2023-02-23T15:01:47.649Z,95123.13
2023-02-23T15:04:18.905Z,95117.47
2023-02-23T15:06:47.906Z,95121.31
2023-02-23T15:09:20.601Z,95121.75
2023-02-23T15:11:54.391Z,95120.59
2023-02-23T15:14:27.842Z,95126.16
2023-02-23T15:16:57.724Z,95125.47
2023-02-23T15:19:35.413Z,95120.16
2023-02-23T15:22:06.751Z,95128.94
2023-02-23T15:24:43.056Z,95129.06
2023-02-23T15:27:22.624Z,95135.91
2023-02-23T15:29:51.239Z,95126.16
2023-02-23T15:32:21.298Z,95126.25
2023-02-23T15:34:49.950Z,95130.63
2023-02-23T15:37:25.969Z,95121.31
2023-02-23T15:39:58.368Z,95117.53
2023-02-23T15:42:41.236Z,95124.03
2023-02-23T15:45:20.180Z,95125.09
2023-02-23T15:47:48.091Z,95127.88
2023-02-23T15:50:27.648Z,95135.56
2023-02-23T15:53:01.959Z,95133.94
2023-02-23T15:55:35.718Z,95129.53
2023-02-23T15:58:15.282Z,95122.69
2023-02-23T16:00:45.243Z,95128.91
2023-02-23T16:03:24.515Z,95133.06
2023-02-23T16:05:59.647Z,95129.00
2023-02-23T16:08:29.609Z,95126.38
2023-02-23T16:11:05.322Z,95131.81
2023-02-23T16:13:34.506Z,95134.47
2023-02-23T16:16:02.501Z,95138.97
2023-02-23T16:18:39.167Z,95136.28
2023-02-23T16:21:08.134Z,95137.88
2023-02-23T16:23:38.517Z,95128.63
2023-02-23T16:26:12.509Z,95133.69
2023-02-23T16:28:45.512Z,95131.78
2023-02-23T16:31:21.051Z,95127.81
2023-02-23T16:33:54.493Z,95141.34
2023-02-23T16:36:24.710Z,95136.31
2023-02-23T16:39:00.623Z,95132.09
2023-02-23T16:41:32.136Z,95139.50
2023-02-23T16:44:02.403Z,95135.09
2023-02-23T16:46:32.829Z,95138.56
2023-02-23T16:49:10.253Z,95132.53
2023-02-23T16:51:38.732Z,95133.56
2023-02-23T16:54:08.571Z,95139.28
2023-02-23T16:56:36.952Z,95142.97
2023-02-23T16:59:09.552Z,95137.94
2023-02-23T17:01:37.907Z,95143.81
2023-02-23T17:04:07.202Z,95151.16
2023-02-23T17:06:35.572Z,95154.84
2023-02-23T17:09:03.988Z,95150.34
2023-02-23T17:11:32.638Z,95158.03
2023-02-23T17:14:00.318Z,95155.22
2023-02-23T17:16:29.403Z,95160.88
2023-02-23T17:18:59.316Z,95156.81
2023-02-23T17:21:27.886Z,95153.75
2023-02-23T17:24:02.532Z,95148.25
2023-02-23T17:26:30.902Z,95150.69
2023-02-23T17:28:59.117Z,95152.25
2023-02-23T17:31:28.373Z,95153.25
2023-02-23T17:33:57.595Z,95146.72
2023-02-23T17:36:27.381Z,95146.16
2023-02-23T17:38:58.829Z,95138.00
2023-02-23T17:41:28.131Z,95151.75
2023-02-23T17:43:55.993Z,95163.06
2023-02-23T17:46:25.112Z,95165.47
2023-02-23T17:48:55.117Z,95164.19
2023-02-23T17:51:25.971Z,95175.84
2023-02-23T17:53:53.761Z,95175.31
2023-02-23T17:56:23.987Z,95174.84
2023-02-23T17:58:51.705Z,95178.13
2023-02-23T18:01:20.708Z,95174.97
2023-02-23T18:03:50.819Z,95174.00
2023-02-23T18:06:19.992Z,95170.13
2023-02-23T18:08:48.922Z,95165.06
2023-02-23T18:11:19.476Z,95172.16
2023-02-23T18:13:48.303Z,95169.06
2023-02-23T18:16:16.353Z,95178.34
2023-02-23T18:18:47.765Z,95173.47
2023-02-23T18:21:17.839Z,95177.94
2023-02-23T18:23:46.559Z,95178.09
2023-02-23T18:26:17.892Z,95173.81
2023-02-23T18:28:46.168Z,95179.72
2023-02-23T18:31:15.443Z,95178.09
2023-02-23T18:33:44.673Z,95179.09
2023-02-23T18:36:20.224Z,95184.81
2023-02-23T18:38:48.230Z,95186.44
2023-02-23T18:41:18.551Z,95173.09
2023-02-23T18:43:49.721Z,95176.25
2023-02-23T18:46:18.650Z,95178.47
2023-02-23T18:48:50.281Z,95177.47
2023-02-23T18:51:19.009Z,95172.59
2023-02-23T18:53:47.476Z,95180.72
2023-02-23T18:56:20.041Z,95182.34
2023-02-23T18:58:49.421Z,95183.75
2023-02-23T19:01:26.566Z,95184.13
2023-02-23T19:03:55.161Z,95179.88
2023-02-23T19:06:24.486Z,95185.47
2023-02-23T19:08:54.640Z,95185.25
2023-02-23T19:11:24.280Z,95185.34
2023-02-23T19:13:54.049Z,95172.44
2023-02-23T19:16:22.073Z,95178.97
2023-02-23T19:18:50.141Z,95172.94
2023-02-23T19:21:22.541Z,95168.94
2023-02-23T19:23:51.167Z,95175.09
2023-02-23T19:26:19.657Z,95182.41
2023-02-23T19:28:47.998Z,95172.00
2023-02-23T19:31:20.656Z,95171.97
2023-02-23T19:33:49.985Z,95177.22
2023-02-23T19:36:21.071Z,95172.09
2023-02-23T19:38:49.566Z,95174.44
2023-02-23T19:41:19.577Z,95167.22
2023-02-23T19:43:48.234Z,95174.31
2023-02-23T19:46:18.211Z,95166.88
2023-02-23T19:48:52.142Z,95169.00
2023-02-23T19:51:20.539Z,95178.63
2023-02-23T19:53:48.906Z,95163.97
2023-02-23T19:56:17.463Z,95171.47
2023-02-23T19:58:46.809Z,95170.66
2023-02-23T20:01:17.723Z,95168.41
2023-02-23T20:03:49.431Z,95167.31
2023-02-23T20:06:18.505Z,95161.34
2023-02-23T20:08:48.230Z,95174.91
2023-02-23T20:11:16.436Z,95164.03
2023-02-23T20:13:44.618Z,95167.84
2023-02-23T20:16:14.666Z,95165.66
2023-02-23T20:18:44.736Z,95162.59
2023-02-23T20:21:14.467Z,95162.16
2023-02-23T20:23:43.603Z,95165.59
2023-02-23T20:26:14.329Z,95156.88
2023-02-23T20:28:43.122Z,95158.56
2023-02-23T20:31:14.084Z,95164.28
2023-02-23T20:33:42.081Z,95158.75
2023-02-23T20:36:12.287Z,95156.50
2023-02-23T20:38:40.334Z,95159.50
2023-02-23T20:41:07.959Z,95165.22
2023-02-23T20:43:36.098Z,95166.75
2023-02-23T20:46:03.738Z,95159.94
2023-02-23T20:48:33.059Z,95152.59
2023-02-23T20:51:02.117Z,95168.94
2023-02-23T20:53:31.181Z,95171.28
2023-02-23T20:55:59.421Z,95161.78
2023-02-23T20:58:29.027Z,95160.91
2023-02-23T21:00:58.331Z,95171.41
2023-02-23T21:03:26.372Z,95164.88
2023-02-23T21:05:55.333Z,95165.88
2023-02-23T21:08:22.909Z,95158.00
2023-02-23T21:10:52.298Z,95161.88
2023-02-23T21:13:22.088Z,95160.00
2023-02-23T21:15:58.486Z,95163.59
2023-02-23T21:18:26.453Z,95160.63
2023-02-23T21:20:56.742Z,95164.59
2023-02-23T21:23:24.854Z,95157.50
2023-02-23T21:25:54.751Z,95161.84
2023-02-23T21:28:22.358Z,95161.03
2023-02-23T21:30:50.785Z,95161.41
2023-02-23T21:33:18.369Z,95165.09
2023-02-23T21:35:46.281Z,95157.22
2023-02-23T21:38:14.183Z,95152.09
2023-02-23T21:40:42.318Z,95151.00
2023-02-23T21:43:12.921Z,95148.38
2023-02-23T21:45:41.385Z,95145.91
2023-02-23T21:48:10.015Z,95134.22
2023-02-23T21:50:38.109Z,95140.47
2023-02-23T21:53:06.356Z,95141.00
2023-02-23T21:55:36.089Z,95140.09
2023-02-23T21:58:03.702Z,95137.38
2023-02-23T22:00:33.670Z,95137.19
2023-02-23T22:03:01.345Z,95131.78
2023-02-23T22:05:28.972Z,95125.63
2023-02-23T22:07:56.717Z,95135.38
2023-02-23T22:10:26.390Z,95131.22
2023-02-23T22:12:55.988Z,95133.22
2023-02-23T22:15:27.825Z,95131.94
2023-02-23T22:17:57.385Z,95124.72
2023-02-23T22:20:26.560Z,95122.72
2023-02-23T22:22:54.377Z,95127.97
2023-02-23T22:25:22.081Z,95127.97
2023-02-23T22:27:49.692Z,95124.72
2023-02-23T22:30:20.144Z,95126.69
2023-02-23T22:32:47.989Z,95131.41
2023-02-23T22:35:17.305Z,95120.34
2023-02-23T22:37:44.971Z,95133.47
2023-02-23T22:40:15.836Z,95132.13
2023-02-23T22:42:48.007Z,95125.69
2023-02-23T22:45:17.012Z,95117.28
2023-02-23T22:47:44.822Z,95121.19
2023-02-23T22:50:17.816Z,95117.34
2023-02-23T22:52:47.564Z,95117.56
2023-02-23T22:55:15.961Z,95120.19
2023-02-23T22:57:44.001Z,95111.66
2023-02-23T23:00:15.493Z,95123.34
2023-02-23T23:02:43.873Z,95116.00
2023-02-23T23:05:13.380Z,95124.78
2023-02-23T23:07:41.360Z,95114.25
2023-02-23T23:10:12.109Z,95115.16
2023-02-23T23:12:40.882Z,95107.66
2023-02-23T23:15:14.668Z,95112.00
2023-02-23T23:17:48.043Z,95101.16
2023-02-23T23:20:16.820Z,95105.41
2023-02-23T23:22:44.779Z,95099.97
2023-02-23T23:25:15.589Z,95097.16
2023-02-23T23:27:45.964Z,95094.63
2023-02-23T23:30:14.445Z,95090.44
2023-02-23T23:32:42.673Z,95088.38
2023-02-23T23:35:13.398Z,95082.66
2023-02-23T23:37:41.430Z,95088.66
2023-02-23T23:40:14.125Z,95084.09
2023-02-23T23:42:46.236Z,95093.16
2023-02-23T23:45:16.168Z,95075.59
2023-02-23T23:47:44.955Z,95075.94
2023-02-23T23:50:15.450Z,95075.59
2023-02-23T23:52:45.485Z,95073.59
2023-02-23T23:55:15.423Z,95068.34
2023-02-23T23:57:44.718Z,95071.97
